createdAt,value
2022-10-25T04:20:08.473Z,13.90
2022-10-25T04:25:05.228Z,13.80
2022-10-25T04:27:33.027Z,13.80
2022-10-25T04:30:00.864Z,13.80
2022-10-25T04:32:28.625Z,13.80
2022-10-25T04:34:56.410Z,13.70
2022-10-25T04:37:25.533Z,13.70
2022-10-25T04:39:53.282Z,13.70
2022-10-25T04:42:21.053Z,13.70
2022-10-25T04:44:48.815Z,13.70
2022-10-25T04:47:16.603Z,13.70
2022-10-25T04:49:44.358Z,13.60
2022-10-25T04:52:12.179Z,13.60
2022-10-25T04:54:41.509Z,13.60
2022-10-25T04:57:09.302Z,13.60
2022-10-25T04:59:37.109Z,13.70
2022-10-25T05:02:05.568Z,13.60
2022-10-25T05:04:33.345Z,13.60
2022-10-25T05:07:01.159Z,13.60
2022-10-25T05:09:28.941Z,13.60
2022-10-25T05:11:58.107Z,13.60
2022-10-25T05:14:25.955Z,13.60
2022-10-25T05:16:53.759Z,13.60
2022-10-25T05:19:21.524Z,13.60
2022-10-25T05:21:49.288Z,13.50
2022-10-25T05:24:17.042Z,13.60
2022-10-25T05:26:44.860Z,13.60
2022-10-25T05:29:14.131Z,13.60
2022-10-25T05:31:42.512Z,13.60
2022-10-25T05:34:11.279Z,13.60
2022-10-25T05:36:39.039Z,13.60
2022-10-25T05:39:06.890Z,13.60
2022-10-25T05:41:37.027Z,13.60
2022-10-25T05:44:05.416Z,13.60
2022-10-25T05:46:34.596Z,13.60
2022-10-25T05:49:02.410Z,13.60
2022-10-25T05:51:35.815Z,13.60
2022-10-25T05:54:05.351Z,13.60
2022-10-25T05:56:34.193Z,13.60
2022-10-25T05:59:03.190Z,13.60
2022-10-25T06:01:31.014Z,13.60
2022-10-25T06:04:00.237Z,13.50
2022-10-25T06:06:28.242Z,13.50
2022-10-25T06:08:57.273Z,13.50
2022-10-25T06:11:25.742Z,13.50
2022-10-25T06:13:53.641Z,13.60
2022-10-25T06:16:21.978Z,13.50
2022-10-25T06:18:49.775Z,13.50
2022-10-25T06:21:19.842Z,13.50
2022-10-25T06:23:48.014Z,13.50
2022-10-25T06:26:16.622Z,13.50
2022-10-25T06:28:44.641Z,13.50
2022-10-25T06:31:12.995Z,13.60
2022-10-25T06:33:41.277Z,13.50
2022-10-25T06:36:13.054Z,13.50
2022-10-25T06:38:42.822Z,13.50
2022-10-25T06:41:12.278Z,13.60
2022-10-25T06:43:40.097Z,13.60
2022-10-25T06:46:08.505Z,13.60
2022-10-25T06:48:36.430Z,13.60
2022-10-25T06:51:04.934Z,13.70
2022-10-25T06:53:33.026Z,13.70
2022-10-25T06:56:04.711Z,13.70
2022-10-25T06:58:33.701Z,13.80
2022-10-25T07:01:02.449Z,13.80
2022-10-25T07:03:34.930Z,13.80
2022-10-25T07:06:03.365Z,13.80
2022-10-25T07:08:31.143Z,13.90
2022-10-25T07:10:58.965Z,13.90
2022-10-25T07:13:28.149Z,13.90
2022-10-25T07:16:01.693Z,13.90
2022-10-25T07:18:30.255Z,14.00
2022-10-25T07:20:59.724Z,14.00
2022-10-25T07:23:27.693Z,14.00
2022-10-25T07:25:55.500Z,14.10
2022-10-25T07:28:23.550Z,14.20
2022-10-25T07:30:52.973Z,14.30
2022-10-25T07:33:21.360Z,14.30
2022-10-25T07:36:06.001Z,14.30
2022-10-25T07:38:37.647Z,14.40
2022-10-25T07:41:05.564Z,14.50
2022-10-25T07:43:33.553Z,14.50
2022-10-25T07:46:02.741Z,14.70
2022-10-25T07:48:30.549Z,14.90
2022-10-25T07:50:58.316Z,15.20
2022-10-25T07:53:26.123Z,15.20
2022-10-25T07:55:55.507Z,15.40
2022-10-25T07:58:23.291Z,15.40
2022-10-25T08:00:51.081Z,15.40
2022-10-25T08:03:20.288Z,15.40
2022-10-25T08:05:49.047Z,15.50
2022-10-25T08:08:16.825Z,15.40
2022-10-25T08:10:45.032Z,15.60
2022-10-25T08:13:12.861Z,15.80
2022-10-25T08:15:40.999Z,15.80
2022-10-25T08:18:09.627Z,15.90
2022-10-25T08:23:26.593Z,15.90
2022-10-25T08:25:54.401Z,16.40
2022-10-25T08:28:22.303Z,16.80
2022-10-25T08:30:50.082Z,16.50
2022-10-25T08:33:17.870Z,16.50
2022-10-25T08:35:47.069Z,16.60
2022-10-25T08:38:14.870Z,16.50
2022-10-25T08:40:47.136Z,16.30
2022-10-25T08:43:19.960Z,16.20
2022-10-25T08:45:51.927Z,16.10
2022-10-25T08:48:23.084Z,15.90
2022-10-25T08:50:53.932Z,16.00
2022-10-25T08:53:23.522Z,16.00
2022-10-25T08:56:11.505Z,16.00
2022-10-25T08:58:46.338Z,16.20
2022-10-25T09:01:16.340Z,16.40
2022-10-25T09:03:44.224Z,16.70
2022-10-25T09:06:18.971Z,17.30
2022-10-25T09:08:52.060Z,17.10
2022-10-25T09:11:23.571Z,17.10
2022-10-25T09:13:54.052Z,17.80
2022-10-25T09:16:24.729Z,18.30
2022-10-25T09:18:54.172Z,18.20
2022-10-25T09:21:27.227Z,18.40
2022-10-25T09:23:58.925Z,18.50
2022-10-25T09:26:35.491Z,18.60
2022-10-25T09:29:05.514Z,18.90
2022-10-25T09:31:37.935Z,19.10
2022-10-25T09:34:07.556Z,19.30
2022-10-25T09:36:41.840Z,19.10
2022-10-25T09:39:15.894Z,19.40
2022-10-25T09:41:46.388Z,19.40
2022-10-25T09:44:17.750Z,19.00
2022-10-25T09:46:48.140Z,19.30
2022-10-25T09:49:21.486Z,19.00
2022-10-25T09:51:54.516Z,18.80
2022-10-25T09:54:27.879Z,18.90
2022-10-25T09:56:55.666Z,18.90
2022-10-25T09:59:23.442Z,18.60
2022-10-25T10:01:52.455Z,18.40
2022-10-25T10:04:26.719Z,18.30
2022-10-25T10:06:57.798Z,18.20
2022-10-25T10:09:26.751Z,18.10
2022-10-25T10:11:54.988Z,18.20
2022-10-25T10:14:26.571Z,18.00
2022-10-25T10:16:55.985Z,18.20
2022-10-25T10:19:24.873Z,18.10
2022-10-25T10:21:54.725Z,18.30
2022-10-25T10:24:24.857Z,18.40
2022-10-25T10:26:55.484Z,18.40
2022-10-25T10:29:24.621Z,18.00
2022-10-25T10:31:53.147Z,18.00
2022-10-25T10:34:25.114Z,18.10
2022-10-25T10:37:02.952Z,18.50
2022-10-25T10:39:32.284Z,18.70
2022-10-25T10:42:04.265Z,19.40
2022-10-25T10:44:34.520Z,19.70
2022-10-25T10:47:03.346Z,20.40
2022-10-25T10:49:35.771Z,20.40
2022-10-25T10:52:03.801Z,20.50
2022-10-25T10:54:34.355Z,20.90
2022-10-25T10:57:03.069Z,21.60
2022-10-25T10:59:33.800Z,22.20
2022-10-25T11:02:12.009Z,22.40
2022-10-25T11:04:47.764Z,22.10
2022-10-25T11:07:19.962Z,21.80
2022-10-25T11:09:49.121Z,21.50
2022-10-25T11:12:16.871Z,21.30
2022-10-25T11:14:44.681Z,21.30
2022-10-25T11:17:14.781Z,21.50
2022-10-25T11:19:57.028Z,21.70
2022-10-25T11:22:44.254Z,22.20
2022-10-25T11:25:19.741Z,23.40
2022-10-25T11:27:53.740Z,23.20
2022-10-25T11:30:22.517Z,23.50
2022-10-25T11:32:59.041Z,23.30
2022-10-25T11:35:35.749Z,23.60
2022-10-25T11:38:05.926Z,24.80
2022-10-25T11:40:39.988Z,25.50
2022-10-25T11:43:16.761Z,25.60
2022-10-25T11:45:45.333Z,25.50
2022-10-25T11:48:20.512Z,25.30
2022-10-25T11:50:50.276Z,25.80
2022-10-25T11:53:27.425Z,26.10
2022-10-25T11:55:58.266Z,25.20
2022-10-25T11:58:33.176Z,24.70
2022-10-25T12:01:14.770Z,25.20
2022-10-25T12:03:49.035Z,25.20
2022-10-25T12:06:18.940Z,25.10
2022-10-25T12:08:51.982Z,25.70
2022-10-25T12:11:23.673Z,25.60
2022-10-25T12:13:52.662Z,25.00
2022-10-25T12:16:21.980Z,25.60
2022-10-25T12:18:50.954Z,26.10
2022-10-25T12:21:21.186Z,26.10
2022-10-25T12:23:51.205Z,25.80
2022-10-25T12:26:23.931Z,25.20
2022-10-25T12:28:53.247Z,24.70
2022-10-25T12:31:22.753Z,24.80
2022-10-25T12:33:53.852Z,24.40
2022-10-25T12:36:27.674Z,24.90
2022-10-25T12:38:56.179Z,24.70
2022-10-25T12:41:26.952Z,24.30
2022-10-25T12:44:02.184Z,24.00
2022-10-25T12:46:47.652Z,24.00
2022-10-25T12:49:33.493Z,23.80
2022-10-25T12:52:09.947Z,23.30
2022-10-25T12:54:44.438Z,23.40
2022-10-25T12:57:19.791Z,23.40
2022-10-25T12:59:54.882Z,23.10
2022-10-25T13:02:36.671Z,22.90
2022-10-25T13:05:12.574Z,22.70
2022-10-25T13:07:40.451Z,22.70
2022-10-25T13:10:16.547Z,22.80
2022-10-25T13:12:58.725Z,22.70
2022-10-25T13:15:26.497Z,23.50
2022-10-25T13:18:04.163Z,23.00
2022-10-25T13:20:51.336Z,22.80
2022-10-25T13:23:37.514Z,22.20
2022-10-25T13:26:08.146Z,22.20
2022-10-25T13:28:44.193Z,22.30
2022-10-25T13:31:32.432Z,22.70
2022-10-25T13:34:18.741Z,22.20
2022-10-25T13:36:47.562Z,21.90
2022-10-25T13:39:16.558Z,21.90
2022-10-25T13:41:44.533Z,22.00
2022-10-25T13:44:20.607Z,22.70
2022-10-25T13:46:49.180Z,23.20
2022-10-25T13:49:28.103Z,22.90
2022-10-25T13:51:56.935Z,23.00
2022-10-25T13:54:24.881Z,22.70
2022-10-25T13:56:53.632Z,22.70
2022-10-25T13:59:37.433Z,22.70
2022-10-25T14:02:18.676Z,22.70
2022-10-25T14:04:46.549Z,23.00
2022-10-25T14:07:32.820Z,23.70
2022-10-25T14:10:01.372Z,23.40
2022-10-25T14:12:30.260Z,23.30
2022-10-25T14:15:03.258Z,23.20
2022-10-25T14:17:33.623Z,23.10
2022-10-25T14:20:02.781Z,23.60
2022-10-25T14:22:33.318Z,23.80
2022-10-25T14:25:03.720Z,23.30
2022-10-25T14:27:32.284Z,23.20
2022-10-25T14:30:14.234Z,23.00
2022-10-25T14:32:49.591Z,23.00
2022-10-25T14:35:18.018Z,22.70
2022-10-25T14:37:45.905Z,22.30
2022-10-25T14:40:18.357Z,22.70
2022-10-25T14:42:46.481Z,22.50
2022-10-25T14:45:20.193Z,22.30
2022-10-25T14:47:48.017Z,22.50
2022-10-25T14:50:16.151Z,22.90
2022-10-25T14:52:44.902Z,22.90
2022-10-25T14:55:17.929Z,22.80
2022-10-25T14:57:46.475Z,22.70
2022-10-25T15:00:20.333Z,22.40
2022-10-25T15:02:49.017Z,22.20
2022-10-25T15:05:19.007Z,21.90
2022-10-25T15:07:47.889Z,21.70
2022-10-25T15:10:31.901Z,21.30
2022-10-25T15:13:03.616Z,21.40
2022-10-25T15:15:35.286Z,21.00
2022-10-25T15:18:03.304Z,20.70
2022-10-25T15:20:31.628Z,20.60
2022-10-25T15:23:03.949Z,20.70
2022-10-25T15:25:33.047Z,20.80
2022-10-25T15:28:09.770Z,20.40
2022-10-25T15:30:39.708Z,20.50
2022-10-25T15:33:10.571Z,20.20
2022-10-25T15:35:42.184Z,20.00
2022-10-25T15:38:10.883Z,19.90
2022-10-25T15:40:39.357Z,19.60
2022-10-25T15:43:07.229Z,19.60
2022-10-25T15:45:35.011Z,19.30
2022-10-25T15:48:04.385Z,19.20
2022-10-25T15:50:32.225Z,19.00
2022-10-25T15:53:01.016Z,18.80
2022-10-25T15:55:32.942Z,18.80
2022-10-25T15:58:00.799Z,18.70
2022-10-25T16:00:30.706Z,18.60
2022-10-25T16:02:58.950Z,18.40
2022-10-25T16:05:28.989Z,18.30
2022-10-25T16:07:56.821Z,18.20
2022-10-25T16:10:25.143Z,18.20
2022-10-25T16:12:58.479Z,18.00
2022-10-25T16:15:27.920Z,18.00
2022-10-25T16:17:55.736Z,17.80
2022-10-25T16:20:24.814Z,17.70
2022-10-25T16:22:55.536Z,17.60
2022-10-25T16:25:24.193Z,17.50
2022-10-25T16:27:53.494Z,17.30
2022-10-25T16:30:22.535Z,17.20
2022-10-25T16:32:50.558Z,17.10
2022-10-25T16:35:21.680Z,17.00
2022-10-25T16:37:49.665Z,17.00
2022-10-25T16:40:20.050Z,17.10
2022-10-25T16:42:49.402Z,17.10
2022-10-25T16:45:20.137Z,17.10
2022-10-25T16:47:47.885Z,17.00
2022-10-25T16:50:15.757Z,16.90
2022-10-25T16:52:43.552Z,16.90
2022-10-25T16:55:11.789Z,16.90
2022-10-25T16:57:40.987Z,16.90
2022-10-25T17:00:09.358Z,16.90
2022-10-25T17:02:38.232Z,16.80
2022-10-25T17:05:06.391Z,16.80
2022-10-25T17:07:34.242Z,16.70
2022-10-25T17:10:02.033Z,16.70
2022-10-25T17:12:29.817Z,16.60
2022-10-25T17:14:58.952Z,16.50
2022-10-25T17:17:27.002Z,16.40
2022-10-25T17:19:54.793Z,16.40
2022-10-25T17:22:23.691Z,16.30
2022-10-25T17:24:51.511Z,16.20
2022-10-25T17:27:19.262Z,15.90
2022-10-25T17:29:47.079Z,15.90
2022-10-25T17:32:16.192Z,15.80
2022-10-25T17:34:44.010Z,15.80
2022-10-25T17:37:11.790Z,15.70
2022-10-25T17:39:39.568Z,15.60
2022-10-25T17:42:07.337Z,15.50
2022-10-25T17:44:35.120Z,15.40
2022-10-25T17:47:03.272Z,15.30
2022-10-25T17:49:32.511Z,15.30
2022-10-25T17:52:00.266Z,15.30
2022-10-25T17:54:28.027Z,15.20
2022-10-25T17:56:58.581Z,15.10
2022-10-25T17:59:27.691Z,15.10
2022-10-25T18:01:55.733Z,15.00
2022-10-25T18:04:23.652Z,14.90
2022-10-25T18:06:52.851Z,14.90
2022-10-25T18:09:20.646Z,14.80
2022-10-25T18:11:48.514Z,14.80
2022-10-25T18:14:16.400Z,14.80
2022-10-25T18:16:44.206Z,14.80
2022-10-25T18:19:13.212Z,14.70
2022-10-25T18:21:41.318Z,14.70
2022-10-25T18:24:13.109Z,14.60
2022-10-25T18:26:40.898Z,14.60
2022-10-25T18:29:09.896Z,14.60
2022-10-25T18:31:37.677Z,14.40
2022-10-25T18:34:05.520Z,14.40
2022-10-25T18:36:33.302Z,14.30
2022-10-25T18:39:01.119Z,14.30
2022-10-25T18:41:31.707Z,14.30
2022-10-25T18:43:59.550Z,14.20
2022-10-25T18:46:29.423Z,14.10
2022-10-25T18:48:57.237Z,14.10
2022-10-25T18:51:26.548Z,14.10
2022-10-25T18:53:54.591Z,14.00
2022-10-25T18:56:22.588Z,14.00
2022-10-25T18:58:51.779Z,14.00
2022-10-25T19:01:22.712Z,13.90
2022-10-25T19:03:51.084Z,13.90
2022-10-25T19:06:19.488Z,13.80
2022-10-25T19:08:49.132Z,13.80
2022-10-25T19:11:17.360Z,13.80
2022-10-25T19:13:48.870Z,13.70
2022-10-25T19:16:20.443Z,13.60
2022-10-25T19:18:48.214Z,13.60
2022-10-25T19:21:17.127Z,13.60
2022-10-25T19:23:46.246Z,13.60
2022-10-25T19:26:15.578Z,13.60
2022-10-25T19:28:43.429Z,13.60
2022-10-25T19:31:12.361Z,13.50
2022-10-25T19:33:45.412Z,13.50
2022-10-25T19:36:13.206Z,13.50
2022-10-25T19:38:41.206Z,13.50
2022-10-25T19:41:10.424Z,13.50
2022-10-25T19:43:38.229Z,13.40
2022-10-25T19:46:06.908Z,13.40
2022-10-25T19:48:34.986Z,13.40
2022-10-25T19:51:07.732Z,13.40
2022-10-25T19:53:35.690Z,13.40
2022-10-25T19:56:04.634Z,13.40
2022-10-25T19:58:32.454Z,13.40
2022-10-25T20:01:05.362Z,13.30
2022-10-25T20:03:33.220Z,13.30
2022-10-25T20:06:01.993Z,13.20
2022-10-25T20:08:32.501Z,13.10
2022-10-25T20:11:00.599Z,13.00
2022-10-25T20:13:28.862Z,13.00
2022-10-25T20:15:56.683Z,13.00
2022-10-25T20:18:25.461Z,13.00
2022-10-25T20:20:58.198Z,12.90
2022-10-25T20:23:26.031Z,12.90
2022-10-25T20:25:55.199Z,12.90
2022-10-25T20:28:23.032Z,12.90
2022-10-25T20:30:50.849Z,12.90
2022-10-25T20:33:20.293Z,12.90
2022-10-25T20:35:48.114Z,12.90
2022-10-25T20:38:16.711Z,12.90
2022-10-25T20:40:45.264Z,12.90
2022-10-25T20:43:14.438Z,12.90
2022-10-25T20:45:44.077Z,12.80
2022-10-25T20:48:11.981Z,12.80
2022-10-25T20:50:43.079Z,12.80
2022-10-25T20:53:11.132Z,12.80
2022-10-25T20:55:39.002Z,12.80
2022-10-25T20:58:06.814Z,12.80
2022-10-25T21:00:35.973Z,12.80
2022-10-25T21:03:03.770Z,12.80
2022-10-25T21:05:31.652Z,12.80
2022-10-25T21:07:59.446Z,12.80
2022-10-25T21:10:27.223Z,12.70
2022-10-25T21:12:54.984Z,12.80
2022-10-25T21:15:22.788Z,12.80
2022-10-25T21:17:52.006Z,12.80
2022-10-25T21:20:19.844Z,12.90
2022-10-25T21:22:47.849Z,12.80
2022-10-25T21:25:15.671Z,12.80
2022-10-25T21:27:43.782Z,12.80
2022-10-25T21:30:11.975Z,12.80
2022-10-25T21:32:39.833Z,12.80
2022-10-25T21:35:09.588Z,12.80
2022-10-25T21:37:37.443Z,12.80
2022-10-25T21:40:05.469Z,12.80
2022-10-25T21:42:33.551Z,12.80
2022-10-25T21:45:01.317Z,12.80
2022-10-25T21:47:29.099Z,12.80
2022-10-25T21:49:56.945Z,12.80
2022-10-25T21:52:26.100Z,12.80
2022-10-25T21:54:53.890Z,12.80
2022-10-25T21:57:21.648Z,12.90
2022-10-25T21:59:49.443Z,12.90
2022-10-25T22:02:17.301Z,12.90
2022-10-25T22:04:45.179Z,12.90
2022-10-25T22:07:12.933Z,12.90
2022-10-25T22:09:42.063Z,12.90
2022-10-25T22:12:09.861Z,12.80
2022-10-25T22:14:37.656Z,12.90
2022-10-25T22:17:05.436Z,12.90
2022-10-25T22:19:33.317Z,12.80
2022-10-25T22:22:01.150Z,12.90
2022-10-25T22:24:28.972Z,12.80
2022-10-25T22:26:58.257Z,12.90
2022-10-25T22:29:26.204Z,12.90
2022-10-25T22:31:54.076Z,12.90
2022-10-25T22:34:22.010Z,12.80
2022-10-25T22:36:49.936Z,12.80
2022-10-25T22:39:17.860Z,12.90
2022-10-25T22:41:46.288Z,12.90
2022-10-25T22:44:15.799Z,12.90
2022-10-25T22:46:43.642Z,12.90
2022-10-25T22:49:11.396Z,12.90
2022-10-25T22:51:39.260Z,13.00
2022-10-25T22:54:07.232Z,12.90
2022-10-25T22:56:35.181Z,12.90
2022-10-25T22:59:03.935Z,12.90
2022-10-25T23:01:33.824Z,12.90
2022-10-25T23:04:01.721Z,12.90
2022-10-25T23:06:30.371Z,13.00
2022-10-25T23:08:59.078Z,13.00
2022-10-25T23:11:27.980Z,13.00
2022-10-25T23:13:55.839Z,13.10
2022-10-25T23:16:23.619Z,13.00
2022-10-25T23:18:52.873Z,13.00
2022-10-25T23:21:23.266Z,13.00
2022-10-25T23:23:51.624Z,13.00
2022-10-25T23:26:20.270Z,13.00
2022-10-25T23:28:48.077Z,13.10
2022-10-25T23:31:15.977Z,13.10
2022-10-25T23:33:44.226Z,13.10
2022-10-25T23:36:15.489Z,13.10
2022-10-25T23:38:43.615Z,13.10
2022-10-25T23:41:11.696Z,13.10
2022-10-25T23:43:39.534Z,13.10
2022-10-25T23:46:07.814Z,13.10
2022-10-25T23:48:35.575Z,13.10
2022-10-25T23:51:04.124Z,13.10
2022-10-25T23:53:33.581Z,13.10
2022-10-25T23:56:01.655Z,13.10
2022-10-25T23:58:29.472Z,13.10
